Time;durP1;ratioP1;P1;durP2;ratioP2;P2;SDS_P1;SDS_P2;PMS_P1;PMS_P2;Temp;Humidity;BMP_temperature;BMP_pressure;BME280_temperature;BME280_humidity;BME280_pressure;Samples;Min_cycle;Max_cycle;Signal;HPM_P1;HPM_P2
2023/08/02 00:01:31;;;;;;;5.90;1.17;;;;;;;;;;5091868;28;20044;-74
2023/08/02 00:03:57;;;;;;;3.78;1.48;;;;;;;;;;5093259;28;20059;-75
2023/08/02 00:06:23;;;;;;;4.40;1.42;;;;;;;;;;5094030;28;20200;-75
2023/08/02 00:08:49;;;;;;;5.20;1.50;;;;;;;;;;5094206;28;20017;-75
2023/08/02 00:11:15;;;;;;;4.78;1.67;;;;;;;;;;5094614;28;20032;-75
2023/08/02 00:13:41;;;;;;;5.53;1.20;;;;;;;;;;5092366;28;20051;-75
2023/08/02 00:16:14;;;;;;;6.20;1.65;;;;;;;;;;5091849;28;20028;-75
2023/08/02 00:18:40;;;;;;;;;;;;;;;;;;5094100;28;20060;-75
2023/08/02 00:21:06;;;;;;;4.22;1.38;;;;;;;;;;5093857;28;20589;-75
2023/08/02 00:23:32;;;;;;;2.45;1.13;;;;;;;;;;5091600;28;20028;-75
2023/08/02 00:25:58;;;;;;;6.72;1.60;;;;;;;;;;5110262;28;20013;-75
2023/08/02 00:28:24;;;;;;;4.72;1.70;;;;;;;;;;5090498;28;20025;-75
2023/08/02 00:30:50;;;;;;;3.42;1.33;;;;;;;;;;5093165;28;20013;-75
2023/08/02 00:33:16;;;;;;;7.25;1.42;;;;;;;;;;5091906;28;21310;-76
2023/08/02 00:35:43;;;;;;;6.70;1.52;;;;;;;;;;5093161;28;20047;-75
2023/08/02 00:38:09;;;;;;;4.15;1.35;;;;;;;;;;5092986;28;20179;-75
2023/08/02 00:40:35;;;;;;;4.85;1.38;;;;;;;;;;5096631;28;20020;-76
2023/08/02 00:43:01;;;;;;;5.40;1.45;;;;;;;;;;5090829;28;20037;-75
2023/08/02 00:45:27;;;;;;;8.25;2.13;;;;;;;;;;5092386;28;20025;-75
2023/08/02 00:47:53;;;;;;;4.00;1.58;;;;;;;;;;5092173;28;20029;-75
2023/08/02 00:50:21;;;;;;;5.43;1.55;;;;;;;;;;5093035;28;20017;-75
2023/08/02 00:52:48;;;;;;;6.05;1.73;;;;;;;;;;5093595;28;20079;-75
2023/08/02 00:55:14;;;;;;;5.13;1.48;;;;;;;;;;5109959;28;20009;-75
2023/08/02 00:57:40;;;;;;;7.22;1.55;;;;;;;;;;5092286;28;20033;-74
2023/08/02 01:00:06;;;;;;;6.07;1.63;;;;;;;;;;5092651;28;20043;-75
2023/08/02 01:02:32;;;;;;;5.68;1.60;;;;;;;;;;5093119;28;20048;-75
2023/08/02 01:04:58;;;;;;;6.30;1.92;;;;;;;;;;5092334;28;20009;-75
2023/08/02 01:07:29;;;;;;;5.07;1.50;;;;;;;;;;5089704;28;20033;-75
2023/08/02 01:10:01;;;;;;;4.75;1.65;;;;;;;;;;5094291;28;20072;-75
2023/08/02 01:12:29;;;;;;;8.13;1.58;;;;;;;;;;5108063;28;20048;-75
2023/08/02 01:14:58;;;;;;;5.93;1.70;;;;;;;;;;5091312;28;20077;-74
2023/08/02 01:17:26;;;;;;;5.32;1.48;;;;;;;;;;5093173;28;20110;-74
2023/08/02 01:19:52;;;;;;;4.95;1.63;;;;;;;;;;5109728;28;20239;-75
2023/08/02 01:22:18;;;;;;;4.32;1.80;;;;;;;;;;5093287;28;20048;-75
2023/08/02 01:24:44;;;;;;;6.07;1.38;;;;;;;;;;5092897;28;20013;-75
2023/08/02 01:27:24;;;;;;;4.45;1.85;;;;;;;;;;5091088;28;20028;-75
2023/08/02 01:29:51;;;;;;;4.15;1.40;;;;;;;;;;5091591;28;20020;-75
2023/08/02 01:32:18;;;;;;;4.72;1.80;;;;;;;;;;5113969;28;20028;-75
2023/08/02 01:34:44;;;;;;;6.03;1.77;;;;;;;;;;5090071;28;20013;-74
2023/08/02 01:37:11;;;;;;;3.00;1.30;;;;;;;;;;5095632;28;20032;-74
2023/08/02 01:39:37;;;;;;;4.32;1.52;;;;;;;;;;5091148;28;20009;-75
2023/08/02 01:42:07;;;;;;;4.93;1.45;;;;;;;;;;5092661;28;20112;-76
2023/08/02 01:44:33;;;;;;;4.05;1.95;;;;;;;;;;5091311;28;20040;-75
2023/08/02 01:46:59;;;;;;;7.45;2.35;;;;;;;;;;5090173;28;20021;-75
2023/08/02 01:49:25;;;;;;;4.07;1.85;;;;;;;;;;5097222;28;20082;-74
2023/08/02 01:51:51;;;;;;;3.90;1.20;;;;;;;;;;5092371;28;20048;-75
2023/08/02 01:54:17;;;;;;;4.65;1.65;;;;;;;;;;5090827;28;20021;-75
2023/08/02 01:56:43;;;;;;;4.07;1.83;;;;;;;;;;5091033;28;20024;-75
2023/08/02 01:59:11;;;;;;;2.67;1.38;;;;;;;;;;5091920;28;20055;-74
2023/08/02 02:01:37;;;;;;;5.40;1.75;;;;;;;;;;5108104;28;20013;-75
2023/08/02 02:04:03;;;;;;;8.82;2.33;;;;;;;;;;5089540;28;20012;-75
2023/08/02 02:06:30;;;;;;;4.32;1.77;;;;;;;;;;5089158;28;20016;-74
2023/08/02 02:08:56;;;;;;;4.90;1.52;;;;;;;;;;5088759;28;20020;-75
2023/08/02 02:11:22;;;;;;;5.45;1.67;;;;;;;;;;5089999;28;20033;-74
2023/08/02 02:13:49;;;;;;;5.20;1.80;;;;;;;;;;5091500;28;20039;-75
2023/08/02 02:16:15;;;;;;;6.43;1.52;;;;;;;;;;5107771;28;20054;-75
2023/08/02 02:18:41;;;;;;;6.55;1.63;;;;;;;;;;5090845;28;20031;-75
2023/08/02 02:21:07;;;;;;;6.15;1.65;;;;;;;;;;5089623;28;20036;-75
2023/08/02 02:23:33;;;;;;;4.43;1.60;;;;;;;;;;5090656;28;20055;-75
2023/08/02 02:25:59;;;;;;;5.75;1.40;;;;;;;;;;5091209;28;20016;-75
2023/08/02 02:28:25;;;;;;;8.48;1.65;;;;;;;;;;5091318;28;20070;-75
2023/08/02 02:30:51;;;;;;;6.47;1.55;;;;;;;;;;5091782;28;20020;-75
2023/08/02 02:33:17;;;;;;;10.40;1.50;;;;;;;;;;5111611;28;20036;-74
2023/08/02 02:35:43;;;;;;;5.38;1.65;;;;;;;;;;5089316;28;20092;-75
2023/08/02 02:38:09;;;;;;;5.05;1.52;;;;;;;;;;5092103;28;20051;-75
2023/08/02 02:40:35;;;;;;;2.05;0.90;;;;;;;;;;5089158;28;20043;-75
2023/08/02 02:43:01;;;;;;;3.38;1.17;;;;;;;;;;5110270;28;20032;-74
2023/08/02 02:45:27;;;;;;;6.97;1.35;;;;;;;;;;5091618;28;20013;-75
2023/08/02 02:47:53;;;;;;;3.17;1.20;;;;;;;;;;5089337;28;20040;-75
2023/08/02 02:50:20;;;;;;;1.50;0.95;;;;;;;;;;5090519;28;20042;-75
2023/08/02 02:52:45;;;;;;;1.83;0.85;;;;;;;;;;5091080;28;20032;-75
2023/08/02 02:55:12;;;;;;;2.03;1.00;;;;;;;;;;5089765;28;20099;-75
2023/08/02 02:57:38;;;;;;;2.08;1.20;;;;;;;;;;5088856;28;20020;-75
2023/08/02 03:00:05;;;;;;;3.58;1.48;;;;;;;;;;5090284;28;20139;-75
2023/08/02 03:02:31;;;;;;;4.13;1.77;;;;;;;;;;5090513;28;20230;-75
2023/08/02 03:04:57;;;;;;;3.22;1.63;;;;;;;;;;5090148;28;20009;-75
2023/08/02 03:07:23;;;;;;;7.88;2.47;;;;;;;;;;5088260;28;20101;-75
2023/08/02 03:09:49;;;;;;;4.15;1.40;;;;;;;;;;5110331;28;20024;-75
2023/08/02 03:12:15;;;;;;;3.10;1.60;;;;;;;;;;5089121;28;20036;-75
2023/08/02 03:14:41;;;;;;;2.67;1.38;;;;;;;;;;5087668;28;20024;-75
2023/08/02 03:17:07;;;;;;;4.65;1.63;;;;;;;;;;5090384;28;20024;-75
2023/08/02 03:19:34;;;;;;;2.35;1.30;;;;;;;;;;5088552;28;20017;-75
2023/08/02 03:22:00;;;;;;;3.40;1.35;;;;;;;;;;5088090;28;20143;-75
2023/08/02 03:24:26;;;;;;;6.68;2.17;;;;;;;;;;5110142;28;20021;-75
2023/08/02 03:26:52;;;;;;;4.43;1.83;;;;;;;;;;5088661;28;20043;-75
2023/08/02 03:29:18;;;;;;;5.13;1.38;;;;;;;;;;5090232;28;20046;-74
2023/08/02 03:31:44;;;;;;;2.65;1.27;;;;;;;;;;5088609;28;20012;-75
2023/08/02 03:34:10;;;;;;;6.28;1.15;;;;;;;;;;5087996;28;20024;-75
2023/08/02 03:36:36;;;;;;;5.10;1.65;;;;;;;;;;5090177;28;20097;-75
2023/08/02 03:39:02;;;;;;;2.80;1.23;;;;;;;;;;5092716;28;20039;-74
2023/08/02 03:41:28;;;;;;;3.42;1.60;;;;;;;;;;5093011;28;20079;-75
2023/08/02 03:43:54;;;;;;;4.78;1.85;;;;;;;;;;5094435;28;20017;-75
2023/08/02 03:46:20;;;;;;;2.47;1.45;;;;;;;;;;5094645;28;20040;-75
2023/08/02 03:48:46;;;;;;;5.97;1.60;;;;;;;;;;5093999;28;20021;-75
2023/08/02 03:51:12;;;;;;;5.38;1.90;;;;;;;;;;5093632;28;20017;-74
2023/08/02 03:53:38;;;;;;;6.28;1.88;;;;;;;;;;5092019;28;20040;-74
2023/08/02 03:56:04;;;;;;;5.22;2.30;;;;;;;;;;5094025;28;20029;-75
2023/08/02 03:58:30;;;;;;;6.63;2.63;;;;;;;;;;5092953;28;20050;-75
2023/08/02 04:00:56;;;;;;;4.75;1.55;;;;;;;;;;5093659;28;20046;-75
2023/08/02 04:03:22;;;;;;;5.95;2.00;;;;;;;;;;5114143;28;20035;-75
2023/08/02 04:05:48;;;;;;;3.20;1.58;;;;;;;;;;5092949;28;20037;-75
2023/08/02 04:08:20;;;;;;;4.70;2.20;;;;;;;;;;5091751;28;20031;-74
2023/08/02 04:10:46;;;;;;;4.75;2.00;;;;;;;;;;5092694;28;20035;-74
2023/08/02 04:13:12;;;;;;;3.45;1.77;;;;;;;;;;5093809;28;20050;-74
2023/08/02 04:15:38;;;;;;;4.20;1.95;;;;;;;;;;5093889;28;20625;-75
2023/08/02 04:18:04;;;;;;;5.18;1.88;;;;;;;;;;5091498;28;20028;-75
2023/08/02 04:20:31;;;;;;;2.65;1.70;;;;;;;;;;5091918;28;20061;-75
2023/08/02 04:22:57;;;;;;;11.68;2.20;;;;;;;;;;5092607;28;20023;-74
2023/08/02 04:25:23;;;;;;;11.68;2.58;;;;;;;;;;5093547;28;20032;-75
2023/08/02 04:27:49;;;;;;;4.47;1.80;;;;;;;;;;5091083;28;20005;-75
2023/08/02 04:30:15;;;;;;;5.40;2.40;;;;;;;;;;5092155;28;20347;-75
2023/08/02 04:32:41;;;;;;;8.38;2.67;;;;;;;;;;5093203;28;20029;-75
2023/08/02 04:35:07;;;;;;;4.00;2.20;;;;;;;;;;5092568;28;20036;-75
2023/08/02 04:37:33;;;;;;;7.75;2.75;;;;;;;;;;5092793;28;20032;-75
2023/08/02 04:39:59;;;;;;;8.10;2.83;;;;;;;;;;5093152;28;20024;-74
2023/08/02 04:42:26;;;;;;;5.68;2.05;;;;;;;;;;5091437;28;20017;-75
2023/08/02 04:44:52;;;;;;;7.88;2.72;;;;;;;;;;5092793;28;20029;-75
2023/08/02 04:47:18;;;;;;;2.63;1.92;;;;;;;;;;5093102;28;20020;-75
2023/08/02 04:49:44;;;;;;;5.18;2.15;;;;;;;;;;5091663;28;20036;-75
2023/08/02 04:52:10;;;;;;;6.43;2.95;;;;;;;;;;5092365;28;20033;-75
2023/08/02 04:54:36;;;;;;;5.90;2.63;;;;;;;;;;5093717;28;20031;-75
2023/08/02 04:57:02;;;;;;;6.75;2.72;;;;;;;;;;5091833;28;20096;-75
2023/08/02 04:59:28;;;;;;;7.28;2.83;;;;;;;;;;5110278;28;20020;-75
2023/08/02 05:01:54;;;;;;;10.20;2.85;;;;;;;;;;5091989;28;20012;-75
2023/08/02 05:04:20;;;;;;;5.47;2.55;;;;;;;;;;5091675;28;20024;-75
2023/08/02 05:06:45;;;;;;;6.80;2.97;;;;;;;;;;5092745;28;20012;-75
2023/08/02 05:09:12;;;;;;;10.50;3.50;;;;;;;;;;5092392;28;20024;-74
2023/08/02 05:11:40;;;;;;;6.68;2.72;;;;;;;;;;5111274;28;20021;-75
2023/08/02 05:14:06;;;;;;;8.73;2.85;;;;;;;;;;5092318;28;20024;-75
2023/08/02 05:16:32;;;;;;;5.82;2.67;;;;;;;;;;5113045;28;20032;-75
2023/08/02 05:18:58;;;;;;;4.78;2.58;;;;;;;;;;5092395;28;20104;-75
2023/08/02 05:21:24;;;;;;;9.23;2.88;;;;;;;;;;5091840;28;20021;-75
2023/08/02 05:23:50;;;;;;;7.28;3.00;;;;;;;;;;5091912;28;20029;-75
2023/08/02 05:26:16;;;;;;;6.45;3.15;;;;;;;;;;5092917;28;20059;-75
2023/08/02 05:28:42;;;;;;;9.25;3.50;;;;;;;;;;5092848;28;20025;-75
2023/08/02 05:31:12;;;;;;;7.97;3.28;;;;;;;;;;5090433;28;20093;-75
2023/08/02 05:33:38;;;;;;;10.23;3.70;;;;;;;;;;5093151;28;20028;-74
2023/08/02 05:36:04;;;;;;;5.10;3.45;;;;;;;;;;5091396;28;20020;-75
2023/08/02 05:38:30;;;;;;;9.18;2.80;;;;;;;;;;5091476;28;20045;-76
2023/08/02 05:41:00;;;;;;;11.80;4.20;;;;;;;;;;5092734;28;20021;-75
2023/08/02 05:43:26;;;;;;;7.22;3.60;;;;;;;;;;5093508;28;21102;-75
2023/08/02 05:45:53;;;;;;;7.43;3.28;;;;;;;;;;5091509;28;20021;-75
2023/08/02 05:48:19;;;;;;;7.03;3.67;;;;;;;;;;5093843;28;20015;-75
2023/08/02 05:53:36;;;;;;;7.38;3.83;;;;;;;;;;5054947;28;20040;-77
2023/08/02 05:56:06;;;;;;;7.32;3.90;;;;;;;;;;5093081;28;20096;-76
2023/08/02 06:01:07;;;;;;;8.52;3.70;;;;;;;;;;5048426;22;20101;-75
2023/08/02 06:03:33;;;;;;;6.75;3.65;;;;;;;;;;5016982;28;20026;-76
2023/08/02 06:05:59;;;;;;;5.88;3.90;;;;;;;;;;5032110;28;20026;-75
2023/08/02 06:08:25;;;;;;;6.25;3.75;;;;;;;;;;5033181;28;20034;-78
2023/08/02 06:10:51;;;;;;;9.57;3.97;;;;;;;;;;5015520;28;20149;-76
2023/08/02 06:13:18;;;;;;;8.05;4.05;;;;;;;;;;5014364;28;20060;-76
2023/08/02 06:15:46;;;;;;;5.53;3.67;;;;;;;;;;5025851;28;20105;-75
2023/08/02 06:18:12;;;;;;;8.95;4.90;;;;;;;;;;5027055;28;20018;-75
2023/08/02 06:20:38;;;;;;;15.65;4.68;;;;;;;;;;5032080;28;20026;-75
2023/08/02 06:23:04;;;;;;;8.90;5.00;;;;;;;;;;5015316;28;20038;-75
2023/08/02 06:25:31;;;;;;;10.05;5.00;;;;;;;;;;5032708;28;20024;-75
2023/08/02 06:27:57;;;;;;;8.95;5.93;;;;;;;;;;5027580;28;20028;-75
2023/08/02 06:30:23;;;;;;;9.00;6.22;;;;;;;;;;5026007;28;20098;-76
2023/08/02 06:32:49;;;;;;;11.13;5.47;;;;;;;;;;5032220;28;20045;-75
2023/08/02 06:35:15;;;;;;;13.80;5.88;;;;;;;;;;5031786;28;20022;-75
2023/08/02 06:37:41;;;;;;;10.93;5.38;;;;;;;;;;5014241;28;20093;-75
2023/08/02 06:40:07;;;;;;;11.32;5.10;;;;;;;;;;5031536;28;20034;-75
2023/08/02 06:42:33;;;;;;;15.50;5.78;;;;;;;;;;5031458;28;20014;-75
2023/08/02 06:45:00;;;;;;;14.10;5.97;;;;;;;;;;5030238;28;20040;-75
2023/08/02 06:47:28;;;;;;;9.18;6.20;;;;;;;;;;5032172;28;20029;-75
2023/08/02 06:49:55;;;;;;;10.38;4.80;;;;;;;;;;5025502;28;20064;-75
2023/08/02 06:52:21;;;;;;;8.90;5.45;;;;;;;;;;5025451;28;20212;-75
2023/08/02 06:54:49;;;;;;;9.82;5.97;;;;;;;;;;5029480;28;20037;-74
2023/08/02 06:57:16;;;;;;;13.68;5.68;;;;;;;;;;5029707;28;20276;-77
2023/08/02 06:59:42;;;;;;;9.13;5.30;;;;;;;;;;5012635;28;20033;-74
2023/08/02 07:02:08;;;;;;;10.77;4.90;;;;;;;;;;5008872;28;20025;-76
2023/08/02 07:04:34;;;;;;;8.18;5.40;;;;;;;;;;5030478;28;20032;-74
2023/08/02 07:07:00;;;;;;;10.13;5.30;;;;;;;;;;5014186;28;20022;-74
2023/08/02 07:09:29;;;;;;;8.65;5.32;;;;;;;;;;5026068;28;20041;-74
2023/08/02 07:11:55;;;;;;;10.48;5.80;;;;;;;;;;5029259;28;20097;-74
2023/08/02 07:14:21;;;;;;;7.70;4.85;;;;;;;;;;5030953;28;20036;-75
2023/08/02 07:16:47;;;;;;;7.35;4.50;;;;;;;;;;5013904;28;20041;-74
2023/08/02 07:19:13;;;;;;;11.25;4.88;;;;;;;;;;5031076;28;20010;-75
2023/08/02 07:21:39;;;;;;;6.95;4.90;;;;;;;;;;5029940;28;20033;-75
2023/08/02 07:24:06;;;;;;;8.02;4.20;;;;;;;;;;5013630;28;20122;-75
2023/08/02 07:26:32;;;;;;;7.05;4.20;;;;;;;;;;5025860;28;20018;-75
2023/08/02 07:28:58;;;;;;;8.98;4.93;;;;;;;;;;5031827;28;20111;-75
2023/08/02 07:31:26;;;;;;;7.85;4.53;;;;;;;;;;5031528;28;20018;-76
2023/08/02 07:33:53;;;;;;;9.38;5.40;;;;;;;;;;5027308;28;20045;-76
2023/08/02 07:36:19;;;;;;;8.07;4.90;;;;;;;;;;5031042;28;20012;-76
2023/08/02 07:38:45;;;;;;;14.73;5.03;;;;;;;;;;5028581;28;20062;-74
2023/08/02 07:41:11;;;;;;;6.97;4.95;;;;;;;;;;5006526;28;20088;-78
2023/08/02 07:43:38;;;;;;;7.47;5.53;;;;;;;;;;5005567;28;20542;-78
2023/08/02 07:46:06;;;;;;;8.35;5.47;;;;;;;;;;5007005;28;20033;-78
2023/08/02 07:48:32;;;;;;;9.95;5.20;;;;;;;;;;5005533;28;21030;-76
2023/08/02 07:50:58;;;;;;;8.18;5.25;;;;;;;;;;5004751;28;20034;-78
2023/08/02 07:53:24;;;;;;;6.68;5.25;;;;;;;;;;5000410;28;20045;-78
2023/08/02 07:55:59;;;;;;;8.85;4.63;;;;;;;;;;5008106;28;20354;-78
2023/08/02 07:58:25;;;;;;;6.97;5.32;;;;;;;;;;4998494;28;20034;-79
2023/08/02 08:00:51;;;;;;;7.68;5.47;;;;;;;;;;5004045;28;20104;-78
2023/08/02 08:03:21;;;;;;;9.63;5.47;;;;;;;;;;4987690;28;21643;-78
2023/08/02 08:05:47;;;;;;;10.07;5.45;;;;;;;;;;5004856;28;20125;-79
2023/08/02 08:08:14;;;;;;;9.40;5.60;;;;;;;;;;5003805;28;20041;-79
2023/08/02 08:10:40;;;;;;;9.88;5.53;;;;;;;;;;5005167;28;20045;-77
2023/08/02 08:13:06;;;;;;;9.63;4.60;;;;;;;;;;4988313;28;20038;-80
2023/08/02 08:15:32;;;;;;;6.85;4.25;;;;;;;;;;4988038;28;20030;-79
2023/08/02 08:17:58;;;;;;;7.75;4.45;;;;;;;;;;5003077;28;20116;-78
2023/08/02 08:20:24;;;;;;;6.55;4.25;;;;;;;;;;5004601;28;20098;-80
2023/08/02 08:22:50;;;;;;;7.40;4.05;;;;;;;;;;4990601;28;20040;-79
2023/08/02 08:25:16;;;;;;;4.97;4.28;;;;;;;;;;4991363;28;20065;-77
2023/08/02 08:27:44;;;;;;;6.47;3.10;;;;;;;;;;5008071;28;20072;-78
2023/08/02 08:30:12;;;;;;;6.22;3.92;;;;;;;;;;5009007;28;20109;-77
2023/08/02 08:32:41;;;;;;;4.50;3.17;;;;;;;;;;5002953;28;20025;-78
2023/08/02 08:35:09;;;;;;;5.75;3.50;;;;;;;;;;5006916;28;20045;-79
2023/08/02 08:37:35;;;;;;;6.57;3.85;;;;;;;;;;5002149;28;20068;-79
2023/08/02 08:40:01;;;;;;;5.05;3.60;;;;;;;;;;5008093;28;20029;-82
2023/08/02 08:42:27;;;;;;;6.65;2.97;;;;;;;;;;4991274;28;20030;-79
2023/08/02 08:44:57;;;;;;;5.20;2.53;;;;;;;;;;5007941;28;20022;-79
2023/08/02 08:47:24;;;;;;;3.38;2.05;;;;;;;;;;5002944;28;20034;-78
2023/08/02 08:49:50;;;;;;;3.80;2.65;;;;;;;;;;5007937;28;20458;-79
2023/08/02 08:52:17;;;;;;;3.63;2.60;;;;;;;;;;5008355;28;20065;-78
2023/08/02 08:54:44;;;;;;;4.70;1.90;;;;;;;;;;5009839;28;20113;-80
2023/08/02 08:57:11;;;;;;;2.15;1.70;;;;;;;;;;4995155;28;20033;-80
2023/08/02 08:59:37;;;;;;;2.60;1.80;;;;;;;;;;5009953;28;20038;-80
2023/08/02 09:02:05;;;;;;;4.15;2.55;;;;;;;;;;4991042;28;20022;-78
2023/08/02 09:04:31;;;;;;;2.40;1.65;;;;;;;;;;5005835;28;20042;-80
2023/08/02 09:06:59;;;;;;;2.60;1.90;;;;;;;;;;4990930;28;20026;-78
2023/08/02 09:09:25;;;;;;;2.83;1.73;;;;;;;;;;5007235;28;20091;-81
2023/08/02 09:11:51;;;;;;;5.65;2.05;;;;;;;;;;5003777;28;20033;-78
2023/08/02 09:14:17;;;;;;;3.15;1.90;;;;;;;;;;5009953;28;20052;-80
2023/08/02 09:17:00;;;;;;;6.43;1.88;;;;;;;;;;5013657;28;20025;-80
2023/08/02 09:19:29;;;;;;;4.20;1.77;;;;;;;;;;5007113;28;20036;-80
2023/08/02 09:22:04;;;;;;;6.38;1.70;;;;;;;;;;5001815;28;20192;-79
2023/08/02 09:24:37;;;;;;;4.03;1.60;;;;;;;;;;5005390;28;20083;-79
2023/08/02 09:27:08;;;;;;;3.75;1.80;;;;;;;;;;5006289;28;20133;-81
2023/08/02 09:29:48;;;;;;;1.83;1.20;;;;;;;;;;5000894;28;20034;-78
2023/08/02 09:32:15;;;;;;;1.92;1.35;;;;;;;;;;5006881;28;20057;-80
2023/08/02 09:34:42;;;;;;;1.27;1.15;;;;;;;;;;5000396;28;20037;-80
2023/08/02 09:37:11;;;;;;;1.20;0.60;;;;;;;;;;4999902;28;20026;-80
2023/08/02 09:39:37;;;;;;;2.92;0.68;;;;;;;;;;5002138;28;20091;-82
2023/08/02 09:42:13;;;;;;;2.53;0.75;;;;;;;;;;5007263;28;20040;-80
2023/08/02 09:44:42;;;;;;;1.15;0.50;;;;;;;;;;4984383;28;20038;-79
2023/08/02 09:47:11;;;;;;;0.70;0.50;;;;;;;;;;5005732;28;20057;-81
2023/08/02 09:49:38;;;;;;;1.58;0.50;;;;;;;;;;5006170;28;20026;-79
2023/08/02 09:52:04;;;;;;;0.93;0.40;;;;;;;;;;4999166;28;20034;-81
2023/08/02 09:54:30;;;;;;;0.73;0.45;;;;;;;;;;5005975;28;20026;-81
2023/08/02 09:56:57;;;;;;;1.50;0.50;;;;;;;;;;4989668;28;20025;-77
2023/08/02 09:59:27;;;;;;;1.63;0.60;;;;;;;;;;5007169;28;20494;-81
2023/08/02 10:01:55;;;;;;;2.63;0.52;;;;;;;;;;5005791;28;20030;-80
2023/08/02 10:04:21;;;;;;;0.88;0.50;;;;;;;;;;5005372;28;20033;-80
2023/08/02 10:06:47;;;;;;;0.98;0.55;;;;;;;;;;4999183;28;20034;-81
2023/08/02 10:09:18;;;;;;;1.27;0.52;;;;;;;;;;4989110;28;20048;-80
2023/08/02 10:11:46;;;;;;;1.52;0.75;;;;;;;;;;5005753;28;20058;-78
2023/08/02 10:14:13;;;;;;;1.80;0.82;;;;;;;;;;4999574;28;20108;-80
2023/08/02 10:16:39;;;;;;;1.15;0.52;;;;;;;;;;5006379;28;20026;-78
2023/08/02 10:19:08;;;;;;;0.95;0.50;;;;;;;;;;5005238;28;20026;-79
2023/08/02 10:21:35;;;;;;;1.95;0.40;;;;;;;;;;5006036;28;20121;-79
2023/08/02 10:24:04;;;;;;;1.48;0.70;;;;;;;;;;4989031;28;20074;-81
2023/08/02 10:26:30;;;;;;;1.55;0.63;;;;;;;;;;4989577;28;20038;-78
2023/08/02 10:28:57;;;;;;;1.83;0.95;;;;;;;;;;5005789;28;20063;-82
2023/08/02 10:31:24;;;;;;;0.73;0.60;;;;;;;;;;4999077;28;20046;-80
2023/08/02 10:33:50;;;;;;;2.97;0.52;;;;;;;;;;4988057;28;20496;-78
2023/08/02 10:36:16;;;;;;;1.48;0.75;;;;;;;;;;5006305;28;20026;-77
2023/08/02 10:38:42;;;;;;;1.75;0.60;;;;;;;;;;5005631;28;20462;-78
2023/08/02 10:41:12;;;;;;;1.55;0.40;;;;;;;;;;5006159;28;20026;-81
2023/08/02 10:43:53;;;;;;;0.70;0.30;;;;;;;;;;4997625;28;20057;-80
2023/08/02 10:46:25;;;;;;;2.75;0.55;;;;;;;;;;5000408;28;20116;-80
2023/08/02 10:48:51;;;;;;;0.63;0.40;;;;;;;;;;5007929;28;20038;-83
2023/08/02 10:51:39;;;;;;;0.82;0.40;;;;;;;;;;4991701;28;20021;-82
2023/08/02 10:54:11;;;;;;;1.25;0.50;;;;;;;;;;5008336;28;20084;-81
2023/08/02 10:56:39;;;;;;;;;;;;;;;;;;5008450;28;20030;-79
2023/08/02 10:59:05;;;;;;;1.02;0.40;;;;;;;;;;5008548;28;19917;-82
2023/08/02 11:01:31;;;;;;;5.75;1.02;;;;;;;;;;5009416;28;20113;-82
2023/08/02 11:03:57;;;;;;;0.65;0.50;;;;;;;;;;5008964;28;21779;-82
2023/08/02 11:06:28;;;;;;;0.52;0.35;;;;;;;;;;4991710;28;20402;-81
2023/08/02 11:08:56;;;;;;;0.88;0.55;;;;;;;;;;5003945;28;20405;-82
2023/08/02 11:11:29;;;;;;;1.95;0.55;;;;;;;;;;4992328;28;21004;-79
2023/08/02 11:13:55;;;;;;;2.05;0.60;;;;;;;;;;5004410;28;20227;-80
2023/08/02 11:16:24;;;;;;;0.95;0.47;;;;;;;;;;5008533;28;20026;-82
2023/08/02 11:18:50;;;;;;;1.10;0.50;;;;;;;;;;5009469;28;20076;-80
2023/08/02 11:21:16;;;;;;;1.50;0.60;;;;;;;;;;5008492;28;20037;-82
2023/08/02 11:23:42;;;;;;;1.17;0.47;;;;;;;;;;5007691;28;20385;-80
2023/08/02 11:26:11;;;;;;;4.85;1.95;;;;;;;;;;5009140;28;20029;-81
2023/08/02 11:28:48;;;;;;;1.92;0.70;;;;;;;;;;5008504;28;20026;-81
2023/08/02 11:31:17;;;;;;;1.50;0.80;;;;;;;;;;5009133;28;20026;-82
2023/08/02 11:33:43;;;;;;;1.80;0.73;;;;;;;;;;5008481;28;20335;-81
2023/08/02 11:36:09;;;;;;;0.93;0.30;;;;;;;;;;5008991;28;20076;-80
2023/08/02 11:38:38;;;;;;;1.00;0.60;;;;;;;;;;5008651;28;20041;-81
2023/08/02 11:41:17;;;;;;;2.65;0.68;;;;;;;;;;5005726;28;20033;-82
2023/08/02 11:43:44;;;;;;;2.28;0.43;;;;;;;;;;5003586;28;20037;-82
2023/08/02 11:46:14;;;;;;;1.48;0.60;;;;;;;;;;5008964;28;20022;-81
2023/08/02 11:48:40;;;;;;;0.95;0.40;;;;;;;;;;5004568;28;20117;-81
2023/08/02 11:51:07;;;;;;;1.60;0.60;;;;;;;;;;5008006;28;20421;-81
2023/08/02 11:53:33;;;;;;;1.90;0.55;;;;;;;;;;5008752;28;21011;-80
2023/08/02 11:55:59;;;;;;;0.90;0.45;;;;;;;;;;5002952;28;20030;-82
2023/08/02 11:58:25;;;;;;;2.20;0.52;;;;;;;;;;4996349;28;20025;-82
2023/08/02 12:00:51;;;;;;;3.20;0.73;;;;;;;;;;5011977;28;20022;-81
2023/08/02 12:03:17;;;;;;;1.75;0.52;;;;;;;;;;4994192;28;20040;-82
2023/08/02 12:05:44;;;;;;;0.65;0.32;;;;;;;;;;5005777;28;20028;-81
2023/08/02 12:08:13;;;;;;;3.60;0.60;;;;;;;;;;5011207;28;20030;-80
2023/08/02 12:10:43;;;;;;;2.50;0.57;;;;;;;;;;4994027;28;20036;-81
2023/08/02 12:13:14;;;;;;;1.25;0.60;;;;;;;;;;5008331;28;20037;-82
2023/08/02 12:15:40;;;;;;;5.22;0.70;;;;;;;;;;5005740;28;20053;-82
2023/08/02 12:18:07;;;;;;;0.60;0.50;;;;;;;;;;5011168;28;21625;-81
2023/08/02 12:20:33;;;;;;;0.73;0.30;;;;;;;;;;5011795;28;20030;-82
2023/08/02 12:23:00;;;;;;;1.48;0.43;;;;;;;;;;4994866;28;20057;-82
2023/08/02 12:25:26;;;;;;;0.50;0.22;;;;;;;;;;4994558;28;20026;-82
2023/08/02 12:28:04;;;;;;;1.75;0.30;;;;;;;;;;4994975;28;20100;-83
2023/08/02 12:30:32;;;;;;;2.25;0.40;;;;;;;;;;4995637;28;20541;-82
2023/08/02 12:32:58;;;;;;;0.60;0.35;;;;;;;;;;4994728;28;20030;-81
2023/08/02 12:35:25;;;;;;;1.38;0.20;;;;;;;;;;4994002;28;20080;-83
2023/08/02 12:37:53;;;;;;;0.80;0.40;;;;;;;;;;4994052;28;20018;-81
2023/08/02 12:40:20;;;;;;;0.35;0.20;;;;;;;;;;5011034;28;20021;-83
2023/08/02 12:42:46;;;;;;;0.60;0.40;;;;;;;;;;4994553;28;20040;-83
2023/08/02 12:45:12;;;;;;;1.85;0.50;;;;;;;;;;5011294;28;20029;-83
2023/08/02 12:47:38;;;;;;;1.48;0.43;;;;;;;;;;5010388;28;20036;-82
2023/08/02 12:50:04;;;;;;;1.10;0.45;;;;;;;;;;5010409;28;20033;-81
2023/08/02 12:52:30;;;;;;;3.03;0.40;;;;;;;;;;4989250;28;20048;-81
2023/08/02 12:54:59;;;;;;;3.65;0.50;;;;;;;;;;4993364;28;20026;-85
2023/08/02 12:57:25;;;;;;;1.85;0.55;;;;;;;;;;5010842;28;20033;-83
2023/08/02 12:59:51;;;;;;;4.07;0.90;;;;;;;;;;4970982;28;1123955;-83
2023/08/02 13:02:17;;;;;;;3.25;0.68;;;;;;;;;;5012354;28;20090;-84
2023/08/02 13:04:44;;;;;;;1.85;0.75;;;;;;;;;;5012007;28;20026;-82
2023/08/02 13:07:10;;;;;;;2.25;0.60;;;;;;;;;;5007141;28;20500;-83
2023/08/02 13:09:38;;;;;;;2.78;0.60;;;;;;;;;;4995549;28;20033;-87
2023/08/02 13:12:07;;;;;;;1.92;0.60;;;;;;;;;;4994723;28;20025;-84
2023/08/02 13:14:33;;;;;;;1.55;0.50;;;;;;;;;;4994795;28;20030;-83
2023/08/02 13:16:59;;;;;;;2.70;0.70;;;;;;;;;;5010969;28;20135;-82
2023/08/02 13:19:24;;;;;;;2.15;0.70;;;;;;;;;;4995241;28;20036;-83
2023/08/02 13:21:53;;;;;;;4.03;0.70;;;;;;;;;;4994031;28;20066;-85
2023/08/02 13:24:22;;;;;;;2.42;0.73;;;;;;;;;;5010069;28;20065;-82
2023/08/02 13:26:48;;;;;;;2.58;0.82;;;;;;;;;;5007060;28;20088;-85
2023/08/02 13:29:16;;;;;;;10.05;1.15;;;;;;;;;;5006652;28;20439;-84
2023/08/02 13:31:42;;;;;;;3.55;1.20;;;;;;;;;;5011905;28;20033;-84
2023/08/02 13:34:08;;;;;;;5.20;1.02;;;;;;;;;;5005717;28;20041;-82
2023/08/02 13:36:34;;;;;;;5.75;1.80;;;;;;;;;;5009870;28;20064;-83
2023/08/02 13:39:00;;;;;;;2.75;0.95;;;;;;;;;;5006454;28;20026;-84
2023/08/02 13:41:26;;;;;;;3.97;0.90;;;;;;;;;;5012355;28;20022;-83
2023/08/02 13:43:52;;;;;;;3.85;0.90;;;;;;;;;;4993893;28;21543;-82
2023/08/02 13:46:18;;;;;;;4.50;1.15;;;;;;;;;;5011195;28;20041;-84
2023/08/02 13:48:44;;;;;;;4.55;0.82;;;;;;;;;;5006993;28;20129;-83
2023/08/02 13:51:10;;;;;;;4.85;0.98;;;;;;;;;;5010849;28;20505;-83
2023/08/02 13:53:37;;;;;;;3.63;0.88;;;;;;;;;;4994100;28;20088;-81
2023/08/02 13:56:03;;;;;;;2.47;0.68;;;;;;;;;;4993532;28;20022;-83
2023/08/02 13:58:31;;;;;;;5.72;1.35;;;;;;;;;;5010926;28;20096;-85
2023/08/02 14:00:57;;;;;;;2.75;0.75;;;;;;;;;;5011893;28;20080;-82
2023/08/02 14:03:23;;;;;;;1.95;0.82;;;;;;;;;;5010440;28;21288;-83
2023/08/02 14:05:49;;;;;;;3.70;0.90;;;;;;;;;;4994348;28;20032;-84
2023/08/02 14:08:17;;;;;;;3.58;0.85;;;;;;;;;;5003766;28;20041;-82
2023/08/02 14:10:46;;;;;;;6.97;1.25;;;;;;;;;;5011044;28;20033;-86
2023/08/02 14:13:12;;;;;;;3.25;0.60;;;;;;;;;;4993976;28;20033;-84
2023/08/02 14:15:38;;;;;;;2.60;0.75;;;;;;;;;;5010746;28;20037;-85
2023/08/02 14:18:04;;;;;;;4.80;0.80;;;;;;;;;;5009466;28;20501;-86
2023/08/02 14:20:30;;;;;;;4.03;1.17;;;;;;;;;;5010822;28;20036;-85
2023/08/02 14:22:56;;;;;;;4.45;0.90;;;;;;;;;;5010932;28;20038;-85
2023/08/02 14:25:22;;;;;;;2.45;0.65;;;;;;;;;;4992954;28;20038;-81
2023/08/02 14:27:47;;;;;;;4.55;0.50;;;;;;;;;;4992754;28;20040;-83
2023/08/02 14:30:16;;;;;;;3.42;0.75;;;;;;;;;;5009061;28;20418;-86
2023/08/02 14:32:44;;;;;;;2.15;0.77;;;;;;;;;;4988816;28;21744;-84
2023/08/02 14:35:10;;;;;;;1.65;0.45;;;;;;;;;;5009002;28;20030;-82
2023/08/02 14:37:38;;;;;;;3.72;1.13;;;;;;;;;;5003303;28;20041;-84
2023/08/02 14:40:04;;;;;;;2.95;0.47;;;;;;;;;;5009460;28;20077;-83
2023/08/02 14:42:30;;;;;;;1.85;0.70;;;;;;;;;;5041913;23;20052;-84
2023/08/02 14:44:56;;;;;;;2.05;0.70;;;;;;;;;;5023274;28;20025;-84
2023/08/02 14:47:24;;;;;;;1.83;0.70;;;;;;;;;;5024899;28;20347;-81